Time;durP1;ratioP1;P1;durP2;ratioP2;P2;SDS_P1;SDS_P2;PMS_P1;PMS_P2;Temp;Humidity;BMP_temperature;BMP_pressure;BME280_temperature;BME280_humidity;BME280_pressure;Samples;Min_cycle;Max_cycle;Signal;HPM_P1;HPM_P2
2022/03/17 00:01:49;;;;;;;24.50;19.55;;;10.90;99.90;;;;;;5047533;28;20040;-70
2022/03/17 00:04:14;;;;;;;26.40;20.45;;;10.80;99.90;;;;;;5048447;28;20074;-72
2022/03/17 00:06:41;;;;;;;24.80;20.67;;;10.80;99.90;;;;;;5050554;28;20044;-71
2022/03/17 00:09:07;;;;;;;26.33;20.40;;;10.80;99.90;;;;;;5049850;28;20972;-71
2022/03/17 00:11:34;;;;;;;25.42;19.83;;;10.80;99.90;;;;;;5064567;28;20094;-71
2022/03/17 00:14:01;;;;;;;25.35;21.27;;;10.80;99.90;;;;;;5048198;28;20131;-71
2022/03/17 00:16:28;;;;;;;27.13;20.33;;;10.80;99.90;;;;;;5048122;28;20032;-72
2022/03/17 00:18:55;;;;;;;27.27;20.55;;;10.80;99.90;;;;;;5033001;28;20029;-71
2022/03/17 00:21:22;;;;;;;25.45;20.55;;;10.80;99.90;;;;;;5050924;28;20415;-72
2022/03/17 00:23:49;;;;;;;24.65;20.50;;;10.80;99.90;;;;;;5020658;28;20060;-71
2022/03/17 00:26:15;;;;;;;26.98;21.60;;;10.80;99.90;;;;;;5023538;28;20040;-71
2022/03/17 00:28:40;;;;;;;29.42;21.27;;;10.70;99.90;;;;;;5050433;28;20501;-72
2022/03/17 00:31:06;;;;;;;28.33;21.65;;;10.70;99.90;;;;;;5051794;28;20053;-71
2022/03/17 00:33:32;;;;;;;25.67;21.08;;;10.70;99.90;;;;;;5049277;28;20038;-71
2022/03/17 00:35:57;;;;;;;26.27;21.27;;;10.70;99.90;;;;;;5069186;28;20074;-71
2022/03/17 00:38:23;;;;;;;27.33;21.13;;;10.70;99.90;;;;;;5069057;28;20434;-71
2022/03/17 00:40:49;;;;;;;28.35;21.95;;;10.80;99.90;;;;;;5039337;28;20041;-71
2022/03/17 00:43:15;;;;;;;27.42;22.45;;;10.70;99.90;;;;;;5034657;28;20036;-71
2022/03/17 00:45:43;;;;;;;26.45;22.08;;;10.70;99.90;;;;;;5049684;28;20040;-71
2022/03/17 00:48:10;;;;;;;24.88;21.42;;;10.70;99.90;;;;;;5051411;28;20050;-71
2022/03/17 00:50:36;;;;;;;26.75;20.15;;;10.70;99.90;;;;;;5054656;28;20047;-71
2022/03/17 00:53:03;;;;;;;26.17;20.92;;;10.70;99.90;;;;;;5024785;28;20039;-70
2022/03/17 00:55:29;;;;;;;27.13;22.02;;;10.70;99.90;;;;;;5040129;28;20037;-71
2022/03/17 00:57:55;;;;;;;26.52;21.27;;;10.70;99.90;;;;;;5070805;28;20050;-72
2022/03/17 01:00:21;;;;;;;26.63;21.33;;;10.70;99.90;;;;;;5071710;28;20509;-72
2022/03/17 01:02:53;;;;;;;28.13;22.40;;;10.70;99.90;;;;;;5052150;28;20560;-72
2022/03/17 01:05:19;;;;;;;26.53;21.70;;;10.70;99.90;;;;;;5051512;28;20032;-71
2022/03/17 01:07:45;;;;;;;26.83;21.80;;;10.70;99.90;;;;;;5052216;28;20402;-71
2022/03/17 01:10:15;;;;;;;28.05;22.02;;;10.60;99.90;;;;;;5048122;28;20052;-71
2022/03/17 01:12:43;;;;;;;27.90;20.98;;;10.70;99.90;;;;;;5050301;28;20041;-71
2022/03/17 01:15:09;;;;;;;27.80;22.60;;;10.60;99.90;;;;;;5047034;28;21879;-71
2022/03/17 01:17:36;;;;;;;30.00;23.30;;;10.70;99.90;;;;;;5048847;28;20059;-71
2022/03/17 01:20:02;;;;;;;27.92;22.85;;;10.60;99.90;;;;;;5049266;28;20064;-71
2022/03/17 01:22:28;;;;;;;26.88;22.58;;;10.60;99.90;;;;;;5051085;28;20361;-71
2022/03/17 01:24:53;;;;;;;30.73;23.35;;;10.60;99.90;;;;;;5070351;28;20039;-71
2022/03/17 01:27:20;;;;;;;26.98;22.33;;;10.60;99.90;;;;;;5051050;28;20049;-70
2022/03/17 01:29:53;;;;;;;28.80;22.90;;;10.60;99.90;;;;;;5052720;28;20440;-71
2022/03/17 01:32:20;;;;;;;27.10;23.00;;;10.60;99.90;;;;;;5057519;28;20583;-72
2022/03/17 01:34:46;;;;;;;29.92;22.73;;;10.50;99.90;;;;;;5049929;28;20102;-71
2022/03/17 01:37:12;;;;;;;31.40;22.73;;;10.50;99.90;;;;;;5048848;28;20489;-71
2022/03/17 01:39:38;;;;;;;28.38;22.52;;;10.50;99.90;;;;;;5051373;28;20040;-71
2022/03/17 01:42:06;;;;;;;27.33;22.67;;;10.60;99.90;;;;;;5049263;28;20067;-70
2022/03/17 01:44:32;;;;;;;27.27;22.15;;;10.60;99.90;;;;;;5050440;28;20103;-71
2022/03/17 01:49:42;;;;;;;27.20;23.58;;;10.50;99.90;;;;;;5053916;28;20052;-71
2022/03/17 01:52:08;;;;;;;31.73;22.95;;;10.50;99.90;;;;;;5027049;28;20543;-71
2022/03/17 01:54:35;;;;;;;26.38;22.60;;;10.50;99.90;;;;;;5055344;28;20024;-71
2022/03/17 01:57:03;;;;;;;28.27;23.02;;;10.60;99.90;;;;;;5054463;28;20135;-70
2022/03/17 01:59:31;;;;;;;29.10;24.50;;;10.60;99.90;;;;;;5051596;28;20046;-70
2022/03/17 02:01:57;;;;;;;30.48;23.40;;;10.60;99.90;;;;;;5033299;28;20506;-70
2022/03/17 02:04:24;;;;;;;29.33;24.27;;;10.60;99.90;;;;;;5054930;28;20036;-72
2022/03/17 02:06:51;;;;;;;32.10;25.38;;;10.50;99.90;;;;;;5071852;28;20049;-69
2022/03/17 02:09:18;;;;;;;28.40;23.88;;;10.50;99.90;;;;;;5039165;28;20037;-71
2022/03/17 02:14:34;;;;;;;30.73;25.08;;;10.40;99.90;;;;;;5033474;28;20044;-71
2022/03/17 02:17:00;;;;;;;31.30;24.75;;;10.30;99.90;;;;;;5034722;28;20036;-70
2022/03/17 02:19:26;;;;;;;29.58;24.00;;;10.30;99.90;;;;;;5047871;28;20032;-70
2022/03/17 02:21:52;;;;;;;28.95;24.45;;;10.40;99.90;;;;;;5054743;28;20119;-70
2022/03/17 02:27:03;;;;;;;30.80;24.60;;;10.30;99.90;;;;;;5037746;28;20048;-72
2022/03/17 02:29:30;;;;;;;28.60;23.10;;;10.30;99.90;;;;;;5073724;28;20044;-72
2022/03/17 02:31:56;;;;;;;30.25;25.77;;;10.30;99.90;;;;;;5065540;28;20036;-70
2022/03/17 02:34:22;;;;;;;28.48;24.58;;;10.30;99.90;;;;;;5036986;28;20044;-71
2022/03/17 02:36:49;;;;;;;30.40;25.08;;;10.30;99.90;;;;;;5068776;28;20381;-70
2022/03/17 02:39:17;;;;;;;30.13;24.60;;;10.40;99.90;;;;;;5051780;28;20050;-70
2022/03/17 02:41:42;;;;;;;31.67;23.90;;;10.30;99.90;;;;;;5063674;28;20454;-70
2022/03/17 02:44:09;;;;;;;28.35;24.23;;;10.40;99.90;;;;;;5034631;28;20124;-73
2022/03/17 02:46:35;;;;;;;28.60;24.83;;;10.30;99.90;;;;;;5031792;28;20047;-72
2022/03/17 02:49:00;;;;;;;28.63;24.95;;;10.40;99.90;;;;;;5066780;28;20396;-72
2022/03/17 02:51:26;;;;;;;27.95;23.90;;;10.40;99.90;;;;;;5050928;28;20457;-70
2022/03/17 02:53:52;;;;;;;27.92;23.65;;;10.40;99.90;;;;;;5034967;28;20408;-70
2022/03/17 02:56:17;;;;;;;29.85;24.77;;;10.40;99.90;;;;;;5020964;28;20094;-71
2022/03/17 02:58:43;;;;;;;33.50;25.42;;;10.40;99.90;;;;;;5053520;28;20396;-70
2022/03/17 03:01:09;;;;;;;30.33;25.25;;;10.40;99.90;;;;;;5063210;28;20090;-71
2022/03/17 03:03:35;;;;;;;27.63;24.65;;;10.40;99.90;;;;;;5065657;28;20036;-70
2022/03/17 03:06:01;;;;;;;30.52;24.70;;;10.40;99.90;;;;;;5051687;28;20131;-71
2022/03/17 03:08:27;;;;;;;28.50;25.17;;;10.50;99.90;;;;;;5024209;28;20055;-74
2022/03/17 03:10:53;;;;;;;30.45;25.33;;;10.40;99.90;;;;;;5052541;28;20048;-70
2022/03/17 03:13:20;;;;;;;30.83;25.42;;;10.40;99.90;;;;;;5035595;28;20040;-72
2022/03/17 03:15:45;;;;;;;28.35;25.35;;;10.50;99.90;;;;;;5065485;28;20041;-72
2022/03/17 03:18:11;;;;;;;29.92;25.63;;;10.50;99.90;;;;;;5064419;28;20036;-72
2022/03/17 03:20:38;;;;;;;29.70;25.92;;;10.50;99.90;;;;;;5047560;28;20535;-71
2022/03/17 03:23:04;;;;;;;28.40;24.92;;;10.50;99.90;;;;;;5033804;28;20081;-70
2022/03/17 03:25:30;;;;;;;28.52;25.10;;;10.50;99.90;;;;;;5032609;28;20119;-72
2022/03/17 03:27:56;;;;;;;28.13;24.98;;;10.50;99.90;;;;;;5054358;28;20742;-72
2022/03/17 03:30:22;;;;;;;29.45;25.17;;;10.50;99.90;;;;;;5036801;28;20043;-70
2022/03/17 03:32:48;;;;;;;30.77;25.65;;;10.50;99.90;;;;;;5048999;28;20036;-70
2022/03/17 03:37:58;;;;;;;28.80;25.70;;;10.60;99.90;;;;;;5050110;28;20039;-71
2022/03/17 03:40:25;;;;;;;30.00;25.65;;;10.50;99.90;;;;;;5050170;28;20167;-71
2022/03/17 03:42:51;;;;;;;30.17;26.92;;;10.50;99.90;;;;;;5063893;28;20045;-71
2022/03/17 03:45:16;;;;;;;29.85;25.95;;;10.50;99.90;;;;;;5045775;28;20060;-71
2022/03/17 03:47:42;;;;;;;30.50;26.88;;;10.50;99.90;;;;;;5020508;28;20039;-70
2022/03/17 03:50:09;;;;;;;31.40;26.63;;;10.50;99.90;;;;;;5050727;28;20046;-70
2022/03/17 03:52:35;;;;;;;30.45;27.20;;;10.50;99.90;;;;;;5035292;28;22440;-70
2022/03/17 03:55:00;;;;;;;29.98;26.83;;;10.50;99.90;;;;;;5050592;28;20068;-70
2022/03/17 03:57:26;;;;;;;32.38;27.15;;;10.50;99.90;;;;;;5034635;28;20127;-70
2022/03/17 03:59:52;;;;;;;31.08;27.10;;;10.60;99.90;;;;;;5036010;28;20115;-72
2022/03/17 04:02:18;;;;;;;29.88;26.70;;;10.50;99.90;;;;;;5042669;28;20098;-70
2022/03/17 04:04:44;;;;;;;31.80;26.92;;;10.50;99.90;;;;;;5063241;28;20496;-71
2022/03/17 04:07:11;;;;;;;31.73;28.33;;;10.60;99.90;;;;;;5052861;28;20076;-72
2022/03/17 04:09:42;;;;;;;34.25;28.90;;;10.50;99.90;;;;;;5054156;28;20035;-72
2022/03/17 04:12:10;;;;;;;33.70;29.25;;;10.50;99.90;;;;;;5053047;28;20111;-71
2022/03/17 04:14:36;;;;;;;37.70;30.13;;;10.50;99.90;;;;;;5049229;28;20095;-70
2022/03/17 04:17:02;;;;;;;35.80;30.88;;;10.60;99.90;;;;;;5046458;28;20131;-71
2022/03/17 04:19:28;;;;;;;37.63;31.88;;;10.60;99.90;;;;;;5069846;28;20052;-69
2022/03/17 04:21:54;;;;;;;36.85;32.40;;;10.60;99.90;;;;;;5050854;28;20049;-70
2022/03/17 04:24:20;;;;;;;37.00;32.95;;;10.50;99.90;;;;;;5067306;28;20037;-71
2022/03/17 04:26:47;;;;;;;38.58;33.13;;;10.60;99.90;;;;;;5050699;28;20036;-71
2022/03/17 04:29:14;;;;;;;41.78;34.15;;;10.50;99.90;;;;;;5053030;28;20033;-71
2022/03/17 04:31:41;;;;;;;44.85;35.97;;;10.40;99.90;;;;;;5047758;28;20128;-71
2022/03/17 04:34:08;;;;;;;45.08;36.42;;;10.40;99.90;;;;;;5053306;28;20223;-71
2022/03/17 04:36:34;;;;;;;47.80;38.55;;;10.40;99.90;;;;;;5049585;28;20400;-71
2022/03/17 04:39:02;;;;;;;48.40;37.58;;;10.40;99.90;;;;;;5053308;28;20174;-70
2022/03/17 04:41:28;;;;;;;47.75;39.03;;;10.40;99.90;;;;;;5052697;28;20136;-70
2022/03/17 04:43:54;;;;;;;47.72;40.08;;;10.30;99.90;;;;;;5036031;28;20119;-71
2022/03/17 04:46:20;;;;;;;51.95;40.58;;;10.30;99.90;;;;;;5053832;28;20063;-70
2022/03/17 04:48:46;;;;;;;57.45;43.15;;;10.30;99.90;;;;;;5052467;28;20773;-71
2022/03/17 04:51:11;;;;;;;58.13;42.60;;;10.20;99.90;;;;;;5038505;28;20139;-70
2022/03/17 04:53:37;;;;;;;54.17;42.25;;;10.20;99.90;;;;;;5051257;28;20072;-69
2022/03/17 04:56:09;;;;;;;58.83;44.15;;;10.20;99.90;;;;;;5027470;28;20474;-69
2022/03/17 04:58:37;;;;;;;63.90;46.22;;;10.20;99.90;;;;;;5047885;28;20047;-72
2022/03/17 05:01:04;;;;;;;64.85;44.65;;;10.20;99.90;;;;;;5053679;28;20036;-71
2022/03/17 05:03:31;;;;;;;62.50;44.40;;;10.20;99.90;;;;;;5040573;28;20109;-69
2022/03/17 05:05:57;;;;;;;69.70;47.17;;;10.20;99.90;;;;;;5052617;28;20049;-74
2022/03/17 05:08:23;;;;;;;65.30;45.72;;;10.20;99.90;;;;;;5034589;28;20085;-69
2022/03/17 05:10:52;;;;;;;38.10;26.60;;;10.10;99.90;;;;;;5050515;28;20504;-71
2022/03/17 05:13:19;;;;;;;26.13;19.40;;;10.00;99.90;;;;;;5054113;28;20514;-70
2022/03/17 05:15:46;;;;;;;13.82;11.20;;;9.90;99.90;;;;;;5050428;28;20079;-70
2022/03/17 05:18:12;;;;;;;10.88;8.88;;;9.60;99.90;;;;;;5051968;28;20117;-70
2022/03/17 05:20:40;;;;;;;12.10;9.70;;;9.40;99.90;;;;;;5048169;28;20496;-70
2022/03/17 05:23:08;;;;;;;11.48;10.32;;;9.20;99.90;;;;;;5048469;28;20053;-70
2022/03/17 05:25:35;;;;;;;13.68;11.13;;;9.00;99.90;;;;;;5066080;28;20388;-70
2022/03/17 05:28:01;;;;;;;14.27;11.82;;;8.90;99.90;;;;;;5064925;28;20557;-71
2022/03/17 05:30:28;;;;;;;12.95;11.65;;;8.80;99.90;;;;;;5049141;28;20502;-70
2022/03/17 05:32:54;;;;;;;13.93;10.68;;;8.70;99.90;;;;;;5050840;28;20416;-70
2022/03/17 05:35:20;;;;;;;12.13;10.57;;;8.60;99.90;;;;;;5071383;28;20499;-70
2022/03/17 05:37:46;;;;;;;12.43;11.18;;;8.60;99.90;;;;;;5054896;28;20069;-70
2022/03/17 05:40:15;;;;;;;10.45;9.40;;;8.50;99.90;;;;;;5049889;28;20036;-71
2022/03/17 05:42:49;;;;;;;12.30;11.00;;;8.50;99.90;;;;;;5051375;28;20433;-71
2022/03/17 05:45:16;;;;;;;15.48;10.77;;;8.50;99.90;;;;;;5069566;28;20503;-71
2022/03/17 05:47:47;;;;;;;15.35;11.00;;;8.40;99.90;;;;;;5050569;28;20055;-70
2022/03/17 05:50:15;;;;;;;14.90;11.32;;;8.40;99.90;;;;;;5051946;28;20036;-71
2022/03/17 05:52:42;;;;;;;14.68;11.85;;;8.30;99.90;;;;;;5049364;28;20040;-71
2022/03/17 05:55:13;;;;;;;14.15;11.43;;;8.30;99.90;;;;;;5048550;28;20194;-70
2022/03/17 05:57:41;;;;;;;16.98;12.73;;;8.30;99.90;;;;;;5063167;28;20055;-70
2022/03/17 06:00:09;;;;;;;19.52;12.13;;;8.30;99.90;;;;;;5042273;28;20048;-71
2022/03/17 06:02:35;;;;;;;17.08;12.02;;;8.30;99.90;;;;;;5064577;28;20041;-71
2022/03/17 06:05:02;;;;;;;19.52;12.05;;;8.30;99.90;;;;;;5069191;28;20549;-70
2022/03/17 06:07:43;;;;;;;21.08;11.80;;;8.30;99.90;;;;;;5069379;28;20497;-71
2022/03/17 06:10:14;;;;;;;19.95;12.23;;;8.20;99.90;;;;;;5049660;28;20052;-69
2022/03/17 06:12:40;;;;;;;21.60;12.00;;;8.20;99.90;;;;;;5024036;28;20546;-71
2022/03/17 06:15:07;;;;;;;15.70;11.13;;;8.20;99.90;;;;;;5065961;28;20044;-71
2022/03/17 06:17:39;;;;;;;23.38;11.80;;;8.20;99.90;;;;;;5066139;28;20031;-70
2022/03/17 06:20:06;;;;;;;23.10;12.82;;;8.20;99.90;;;;;;5048373;28;20068;-70
2022/03/17 06:22:31;;;;;;;21.20;11.90;;;8.20;99.90;;;;;;5049433;28;20044;-70
2022/03/17 06:24:57;;;;;;;19.15;11.30;;;8.10;99.90;;;;;;5049198;28;20460;-71
2022/03/17 06:27:24;;;;;;;22.17;10.73;;;8.10;99.90;;;;;;5048770;28;20036;-71
2022/03/17 06:29:49;;;;;;;17.50;10.45;;;8.20;99.90;;;;;;5045378;28;20060;-71
2022/03/17 06:32:15;;;;;;;19.63;10.82;;;8.10;99.90;;;;;;5050694;28;20044;-71
2022/03/17 06:34:40;;;;;;;19.52;10.23;;;8.10;99.90;;;;;;5067273;28;20528;-71
2022/03/17 06:37:06;;;;;;;22.05;8.95;;;8.20;99.90;;;;;;5057073;28;20470;-71
2022/03/17 06:39:32;;;;;;;20.75;9.50;;;8.10;99.90;;;;;;5045557;28;20392;-71
2022/03/17 06:41:57;;;;;;;15.25;8.23;;;8.20;99.90;;;;;;5062512;28;20047;-72
2022/03/17 06:44:23;;;;;;;21.63;9.15;;;8.10;99.90;;;;;;5046381;28;20477;-72
2022/03/17 06:46:48;;;;;;;16.10;7.82;;;8.10;99.90;;;;;;5058205;28;20086;-72
2022/03/17 06:49:14;;;;;;;15.50;7.00;;;8.10;99.90;;;;;;5069050;28;20036;-77
2022/03/17 06:51:40;;;;;;;19.42;8.35;;;8.10;99.90;;;;;;5032866;28;20038;-71
2022/03/17 06:54:05;;;;;;;18.55;7.15;;;8.10;99.90;;;;;;5049476;28;20079;-71
2022/03/17 06:56:31;;;;;;;18.90;7.45;;;8.10;99.90;;;;;;5066652;28;20051;-72
2022/03/17 06:58:57;;;;;;;17.17;6.93;;;8.00;99.90;;;;;;5064205;28;20369;-71
2022/03/17 07:01:22;;;;;;;14.65;6.32;;;8.00;99.90;;;;;;5048985;28;20036;-72
2022/03/17 07:03:48;;;;;;;17.23;5.45;;;8.10;99.90;;;;;;5062010;28;20080;-72
2022/03/17 07:06:14;;;;;;;15.45;5.55;;;8.00;99.90;;;;;;5046268;28;20127;-72
2022/03/17 07:08:39;;;;;;;14.88;4.93;;;8.00;99.90;;;;;;5058063;28;20763;-71
2022/03/17 07:11:05;;;;;;;11.82;4.38;;;8.00;99.90;;;;;;5055650;28;20047;-71
2022/03/17 07:13:30;;;;;;;14.88;4.13;;;8.00;99.90;;;;;;5036487;28;20050;-71
2022/03/17 07:15:56;;;;;;;14.70;3.38;;;8.00;99.90;;;;;;5052956;28;20098;-71
2022/03/17 07:18:22;;;;;;;13.55;3.38;;;8.10;99.90;;;;;;5070963;28;20037;-71
2022/03/17 07:20:48;;;;;;;19.50;3.88;;;8.10;99.90;;;;;;5051398;28;20103;-71
2022/03/17 07:23:14;;;;;;;14.55;3.83;;;8.10;99.90;;;;;;5052253;28;20032;-71
2022/03/17 07:25:39;;;;;;;16.27;3.88;;;8.10;99.90;;;;;;5051589;28;20032;-71
2022/03/17 07:28:05;;;;;;;15.27;3.33;;;8.10;99.90;;;;;;5070081;28;20086;-71
2022/03/17 07:30:31;;;;;;;20.10;3.88;;;8.00;99.90;;;;;;5052177;28;20091;-71
2022/03/17 07:32:59;;;;;;;18.33;3.40;;;8.00;99.90;;;;;;5065343;28;20033;-72
2022/03/17 07:35:28;;;;;;;14.15;3.33;;;8.10;99.90;;;;;;5057041;28;20051;-72
2022/03/17 07:37:58;;;;;;;16.92;3.65;;;8.00;99.90;;;;;;5052075;28;20373;-72
2022/03/17 07:40:24;;;;;;;19.35;3.17;;;8.00;99.90;;;;;;5050327;28;20040;-71
2022/03/17 07:42:50;;;;;;;13.50;2.67;;;8.00;99.90;;;;;;5069231;28;20123;-71
2022/03/17 07:45:15;;;;;;;16.92;2.92;;;8.00;99.90;;;;;;5057459;28;20158;-71
2022/03/17 07:47:48;;;;;;;15.55;3.33;;;7.90;99.90;;;;;;5075094;28;20119;-71
2022/03/17 07:50:15;;;;;;;24.40;3.53;;;8.00;99.90;;;;;;5056814;28;20060;-71
2022/03/17 07:52:40;;;;;;;15.57;3.67;;;8.00;99.90;;;;;;5057000;28;20051;-71
2022/03/17 07:55:07;;;;;;;13.48;2.35;;;8.00;99.90;;;;;;5056547;28;20036;-71
2022/03/17 07:57:35;;;;;;;14.90;2.35;;;8.00;99.90;;;;;;5050094;28;20043;-71
2022/03/17 08:00:07;;;;;;;10.63;2.30;;;7.90;99.90;;;;;;5053679;28;20086;-71
2022/03/17 08:02:33;;;;;;;16.48;3.17;;;8.00;99.90;;;;;;5056428;28;20046;-71
2022/03/17 08:05:00;;;;;;;14.48;2.97;;;8.00;99.90;;;;;;5056541;28;20036;-71
2022/03/17 08:07:27;;;;;;;12.70;2.13;;;8.00;99.90;;;;;;5070562;28;20230;-71
2022/03/17 08:09:52;;;;;;;11.90;2.65;;;8.10;99.90;;;;;;5057558;28;20036;-71
2022/03/17 08:12:18;;;;;;;9.30;2.15;;;8.10;99.90;;;;;;5074350;28;20053;-71
2022/03/17 08:14:43;;;;;;;14.77;2.08;;;8.20;99.90;;;;;;5039374;28;20090;-71
2022/03/17 08:17:09;;;;;;;11.00;2.20;;;8.20;99.90;;;;;;5056445;28;20047;-71
2022/03/17 08:19:35;;;;;;;17.23;2.47;;;8.20;99.90;;;;;;5074512;28;20059;-71
2022/03/17 08:22:01;;;;;;;15.02;3.17;;;8.20;99.90;;;;;;5050453;28;20075;-71
2022/03/17 08:24:27;;;;;;;14.20;2.50;;;8.20;99.90;;;;;;5056048;28;20086;-71
2022/03/17 08:26:54;;;;;;;14.15;2.20;;;8.20;99.90;;;;;;5057050;28;20488;-71
2022/03/17 08:29:20;;;;;;;13.30;2.75;;;8.20;99.90;;;;;;5056335;28;20036;-71
2022/03/17 08:31:45;;;;;;;15.93;2.63;;;8.30;99.90;;;;;;5055525;28;20037;-71
2022/03/17 08:34:11;;;;;;;19.45;2.63;;;8.30;99.90;;;;;;5055707;28;20177;-71
2022/03/17 08:36:36;;;;;;;19.75;2.38;;;8.30;99.90;;;;;;5074330;28;20097;-71
2022/03/17 08:39:02;;;;;;;17.92;3.03;;;8.20;99.90;;;;;;5056471;28;20040;-71
2022/03/17 08:41:28;;;;;;;14.40;2.53;;;8.20;99.90;;;;;;5055922;28;20040;-71
2022/03/17 08:43:53;;;;;;;12.07;2.63;;;8.30;99.90;;;;;;5074045;28;20040;-71
2022/03/17 08:49:20;;;;;;;14.77;2.42;;;8.40;99.90;;;;;;5036065;28;20074;-71
2022/03/17 08:51:52;;;;;;;13.52;2.55;;;8.30;99.90;;;;;;5056058;28;20427;-71
2022/03/17 08:54:22;;;;;;;15.30;2.83;;;8.30;99.90;;;;;;5055634;28;20053;-71
2022/03/17 08:56:51;;;;;;;16.35;2.50;;;8.30;99.90;;;;;;5039328;28;20051;-71
2022/03/17 08:59:17;;;;;;;15.88;2.42;;;8.30;99.90;;;;;;5040095;28;20052;-71
2022/03/17 09:01:43;;;;;;;12.85;2.17;;;8.30;99.90;;;;;;5073584;28;20077;-71
2022/03/17 09:04:14;;;;;;;12.95;2.45;;;8.20;99.90;;;;;;5053125;28;20044;-71
2022/03/17 09:06:43;;;;;;;17.42;3.03;;;8.20;99.90;;;;;;5071975;28;20107;-71
2022/03/17 09:09:09;;;;;;;14.55;2.55;;;8.30;99.90;;;;;;5071301;28;20039;-71
2022/03/17 09:11:35;;;;;;;19.95;3.72;;;8.30;99.90;;;;;;5055761;28;20051;-71
2022/03/17 09:14:01;;;;;;;17.83;2.85;;;8.30;99.90;;;;;;5058000;28;20404;-71
2022/03/17 09:16:27;;;;;;;16.90;2.47;;;8.40;99.90;;;;;;5076045;28;20032;-71
2022/03/17 09:18:52;;;;;;;17.25;2.72;;;8.50;99.90;;;;;;5056306;28;20051;-71
2022/03/17 09:21:18;;;;;;;20.05;2.75;;;8.60;99.90;;;;;;5038665;28;20151;-71
2022/03/17 09:23:44;;;;;;;17.13;2.72;;;8.70;99.90;;;;;;5070960;28;20025;-71
2022/03/17 09:26:09;;;;;;;15.88;2.90;;;8.80;99.90;;;;;;5055320;28;20072;-71
2022/03/17 09:28:35;;;;;;;23.60;2.70;;;8.80;99.90;;;;;;5055549;28;20043;-71
2022/03/17 09:31:01;;;;;;;15.80;2.83;;;8.90;99.90;;;;;;5073103;28;20055;-71
2022/03/17 09:33:27;;;;;;;11.75;2.33;;;8.90;99.90;;;;;;5054644;28;20047;-71
2022/03/17 09:35:53;;;;;;;14.10;2.95;;;8.90;99.90;;;;;;5055322;28;20036;-71
2022/03/17 09:38:19;;;;;;;15.90;2.90;;;8.90;99.90;;;;;;5054562;28;20048;-71
2022/03/17 09:40:46;;;;;;;13.55;2.17;;;8.90;99.90;;;;;;5051566;28;20044;-71
2022/03/17 09:43:28;;;;;;;11.63;2.50;;;8.90;99.90;;;;;;5054871;28;20049;-71
2022/03/17 09:45:56;;;;;;;13.82;2.50;;;8.90;99.90;;;;;;5058364;28;20074;-71
2022/03/17 09:48:24;;;;;;;13.50;2.30;;;8.80;99.90;;;;;;5048986;28;20139;-71
2022/03/17 09:50:56;;;;;;;13.30;2.53;;;8.90;99.90;;;;;;5055533;28;20492;-71
2022/03/17 09:53:24;;;;;;;18.77;2.50;;;8.90;99.90;;;;;;5054395;28;20056;-71
2022/03/17 09:55:50;;;;;;;14.55;2.35;;;8.90;99.90;;;;;;5054866;28;20047;-71
2022/03/17 09:58:16;;;;;;;16.83;2.47;;;8.90;99.90;;;;;;5069549;28;20044;-71
2022/03/17 10:00:49;;;;;;;14.52;2.60;;;8.80;99.90;;;;;;5072456;28;20532;-71
2022/03/17 10:03:21;;;;;;;13.82;2.72;;;8.80;99.90;;;;;;5053038;28;20496;-71
2022/03/17 10:05:49;;;;;;;12.75;2.65;;;8.80;99.90;;;;;;5058268;28;20535;-71
2022/03/17 10:08:16;;;;;;;16.02;3.00;;;8.70;99.90;;;;;;5049530;28;20485;-71
2022/03/17 10:10:43;;;;;;;15.90;3.63;;;8.60;99.90;;;;;;5054452;28;20040;-71
2022/03/17 10:13:17;;;;;;;14.77;2.40;;;8.70;99.90;;;;;;5069697;28;20492;-71
2022/03/17 10:15:45;;;;;;;12.18;2.25;;;8.80;99.90;;;;;;5049167;28;20427;-71
2022/03/17 10:18:25;;;;;;;17.27;2.60;;;9.00;99.90;;;;;;5035830;28;20559;-71
2022/03/17 10:21:11;;;;;;;14.48;2.83;;;9.30;99.90;;;;;;5071991;28;20697;-71
2022/03/17 10:24:09;;;;;;;11.60;2.10;;;9.50;99.90;;;;;;5047348;28;20473;-71
2022/03/17 10:26:50;;;;;;;11.93;2.63;;;9.80;99.90;;;;;;5018884;28;20044;-71
2022/03/17 10:29:25;;;;;;;14.00;2.22;;;10.00;99.90;;;;;;5053813;28;20048;-71
2022/03/17 10:32:07;;;;;;;13.15;2.10;;;10.30;99.90;;;;;;5052052;28;20047;-71
2022/03/17 10:34:36;;;;;;;9.98;2.08;;;10.50;99.90;;;;;;5052695;28;20051;-71
2022/03/17 10:37:16;;;;;;;10.95;2.60;;;10.60;99.90;;;;;;5053981;28;20036;-71
2022/03/17 10:39:53;;;;;;;11.88;2.28;;;10.60;99.90;;;;;;5048021;28;20416;-71
2022/03/17 10:42:22;;;;;;;9.07;2.10;;;10.80;99.90;;;;;;5053985;28;20408;-71
2022/03/17 10:44:52;;;;;;;10.82;2.03;;;11.00;99.90;;;;;;5053324;28;20545;-71
2022/03/17 10:47:35;;;;;;;8.85;1.75;;;11.20;99.90;;;;;;5047410;28;20079;-71
2022/03/17 10:50:11;;;;;;;12.05;2.35;;;11.40;99.90;;;;;;5034024;28;20420;-71
2022/03/17 10:52:58;;;;;;;12.02;2.40;;;11.50;99.90;;;;;;5049097;28;20114;-71
2022/03/17 10:55:32;;;;;;;9.05;2.20;;;11.60;99.90;;;;;;5053811;28;20362;-71
2022/03/17 10:58:18;;;;;;;11.98;2.33;;;11.80;99.90;;;;;;5053936;28;20043;-71
2022/03/17 11:00:48;;;;;;;11.07;1.95;;;11.90;99.90;;;;;;5068134;28;20431;-71
2022/03/17 11:03:14;;;;;;;10.30;2.00;;;11.80;99.90;;;;;;5070961;28;20447;-71
2022/03/17 11:05:40;;;;;;;8.60;2.22;;;11.70;99.90;;;;;;5052497;28;20032;-71
2022/03/17 11:08:10;;;;;;;8.07;1.90;;;11.90;99.90;;;;;;5036656;28;20488;-71
2022/03/17 11:10:37;;;;;;;10.98;2.40;;;12.30;99.90;;;;;;5053848;28;20393;-71
2022/03/17 11:13:11;;;;;;;10.50;2.30;;;12.40;99.90;;;;;;5053159;28;20566;-71
2022/03/17 11:15:45;;;;;;;13.40;2.40;;;12.30;99.90;;;;;;5056347;28;20396;-71
2022/03/17 11:18:20;;;;;;;12.05;2.20;;;12.20;99.90;;;;;;5052809;28;20040;-71
2022/03/17 11:20:46;;;;;;;12.68;2.40;;;12.20;99.90;;;;;;5053310;28;20090;-71
2022/03/17 11:23:20;;;;;;;10.48;2.22;;;12.30;99.90;;;;;;5065014;28;20542;-71
2022/03/17 11:25:53;;;;;;;12.43;2.10;;;12.50;99.90;;;;;;5071287;28;20127;-71
2022/03/17 11:28:30;;;;;;;12.48;2.63;;;12.70;98.10;;;;;;5053044;28;20040;-71
2022/03/17 11:31:01;;;;;;;9.20;2.50;;;12.60;99.90;;;;;;5053097;28;20127;-71
2022/03/17 11:33:33;;;;;;;8.88;2.28;;;12.50;95.90;;;;;;5071091;28;20067;-71
2022/03/17 11:36:07;;;;;;;10.00;2.30;;;12.60;95.80;;;;;;5053056;28;20040;-71
2022/03/17 11:38:37;;;;;;;12.02;1.90;;;12.80;94.20;;;;;;5046808;28;20627;-71
2022/03/17 11:41:17;;;;;;;10.13;1.95;;;12.90;91.30;;;;;;5052180;28;20167;-71
2022/03/17 11:43:45;;;;;;;8.90;2.20;;;12.80;88.50;;;;;;5051683;28;20037;-71
2022/03/17 11:46:19;;;;;;;8.02;1.98;;;12.50;86.70;;;;;;5066723;28;20045;-71
2022/03/17 11:48:51;;;;;;;12.60;2.65;;;12.30;89.40;;;;;;5053347;28;20435;-71
2022/03/17 11:51:17;;;;;;;8.73;2.08;;;12.00;90.70;;;;;;5053440;28;20044;-71
2022/03/17 11:53:52;;;;;;;10.35;2.28;;;11.90;90.60;;;;;;5052475;28;20041;-71
2022/03/17 11:56:31;;;;;;;8.88;2.42;;;11.90;91.70;;;;;;5019846;28;20083;-71
2022/03/17 11:58:58;;;;;;;9.75;2.10;;;12.00;93.40;;;;;;5052753;28;20037;-71
2022/03/17 12:01:27;;;;;;;13.45;2.38;;;12.10;93.30;;;;;;5067168;28;20041;-71
2022/03/17 12:03:58;;;;;;;8.48;2.30;;;12.20;91.10;;;;;;5070020;28;20025;-71
2022/03/17 12:06:29;;;;;;;9.43;2.30;;;12.60;93.40;;;;;;5033561;28;20028;-71
2022/03/17 12:09:07;;;;;;;15.95;3.25;;;12.80;90.00;;;;;;5049579;28;20028;-71
2022/03/17 12:11:47;;;;;;;13.07;2.88;;;12.60;90.80;;;;;;5045754;28;20043;-71
2022/03/17 12:14:22;;;;;;;10.13;2.42;;;12.70;92.00;;;;;;5045327;28;20074;-71
2022/03/17 12:16:49;;;;;;;12.18;2.70;;;12.60;87.70;;;;;;5056866;28;20040;-71
2022/03/17 12:19:53;;;;;;;14.77;2.80;;;12.40;89.50;;;;;;5049876;28;20473;-71
2022/03/17 12:22:39;;;;;;;8.98;2.10;;;12.60;90.20;;;;;;5039707;28;20056;-71
2022/03/17 12:25:19;;;;;;;10.05;2.05;;;13.10;89.70;;;;;;5053419;28;20079;-71
2022/03/17 12:27:56;;;;;;;11.48;2.25;;;13.50;90.50;;;;;;5055939;28;20036;-71
2022/03/17 12:30:23;;;;;;;10.50;2.17;;;13.70;81.20;;;;;;5051288;28;20119;-71
2022/03/17 12:32:58;;;;;;;8.20;2.67;;;13.80;81.20;;;;;;5075373;28;20033;-71
2022/03/17 12:35:28;;;;;;;11.68;2.42;;;13.90;83.70;;;;;;5052222;28;20162;-71
2022/03/17 12:37:59;;;;;;;9.13;2.30;;;13.50;78.30;;;;;;5056405;28;20047;-71
2022/03/17 12:40:25;;;;;;;9.13;2.17;;;13.40;75.80;;;;;;5056589;28;20127;-71
2022/03/17 12:42:53;;;;;;;9.15;2.00;;;13.90;76.90;;;;;;5077099;28;20178;-71
2022/03/17 12:45:24;;;;;;;9.63;2.05;;;14.20;75.00;;;;;;5060726;28;20037;-71
2022/03/17 12:47:56;;;;;;;10.77;2.28;;;14.40;76.10;;;;;;5071022;28;20096;-71
2022/03/17 12:50:23;;;;;;;11.45;2.45;;;14.70;73.50;;;;;;5055366;28;20089;-71
2022/03/17 12:52:49;;;;;;;7.85;2.35;;;14.50;73.00;;;;;;5061360;28;20055;-71
2022/03/17 12:55:17;;;;;;;11.45;2.70;;;14.50;71.20;;;;;;5079057;28;20036;-71